sensor_id;sensor_type;location;lat;lon;timestamp;pressure;altitude;pressure_sealevel;temperature;humidity
41712;BME280;27399;51.516;13.670;2023-03-25T00:00:07;99424.91;;;12.08;81.85
41712;BME280;27399;51.516;13.670;2023-03-25T00:02:42;99423.56;;;12.23;80.72
41712;BME280;27399;51.516;13.670;2023-03-25T00:05:09;99419.13;;;12.22;80.64
41712;BME280;27399;51.516;13.670;2023-03-25T00:07:35;99422.88;;;12.17;80.59
41712;BME280;27399;51.516;13.670;2023-03-25T00:10:01;99418.59;;;12.11;80.36
41712;BME280;27399;51.516;13.670;2023-03-25T00:12:27;99417.66;;;12.12;80.85
41712;BME280;27399;51.516;13.670;2023-03-25T00:14:52;99416.66;;;12.16;80.92
41712;BME280;27399;51.516;13.670;2023-03-25T00:17:23;99411.06;;;12.24;80.59
41712;BME280;27399;51.516;13.670;2023-03-25T00:19:54;99419.06;;;12.24;80.85
41712;BME280;27399;51.516;13.670;2023-03-25T00:22:21;99397.06;;;12.16;81.77
41712;BME280;27399;51.516;13.670;2023-03-25T00:24:47;99406.41;;;12.31;81.80
41712;BME280;27399;51.516;13.670;2023-03-25T00:31:12;99403.00;;;12.26;83.21
41712;BME280;27399;51.516;13.670;2023-03-25T00:33:39;99398.06;;;12.12;82.97
41712;BME280;27399;51.516;13.670;2023-03-25T00:36:08;99396.91;;;12.20;82.87
41712;BME280;27399;51.516;13.670;2023-03-25T00:38:34;99388.34;;;12.09;82.16
41712;BME280;27399;51.516;13.670;2023-03-25T00:41:19;99385.09;;;12.28;82.38
41712;BME280;27399;51.516;13.670;2023-03-25T00:44:09;99384.47;;;12.19;82.12
41712;BME280;27399;51.516;13.670;2023-03-25T00:46:37;99373.47;;;12.29;81.53
41712;BME280;27399;51.516;13.670;2023-03-25T00:49:03;99375.34;;;12.27;81.52
41712;BME280;27399;51.516;13.670;2023-03-25T00:51:29;99379.91;;;12.23;81.71
41712;BME280;27399;51.516;13.670;2023-03-25T00:53:56;99366.28;;;12.31;81.41
41712;BME280;27399;51.516;13.670;2023-03-25T00:56:24;99370.56;;;12.36;81.01
41712;BME280;27399;51.516;13.670;2023-03-25T00:58:51;99366.97;;;12.37;80.94
41712;BME280;27399;51.516;13.670;2023-03-25T01:01:19;99365.28;;;12.35;80.95
41712;BME280;27399;51.516;13.670;2023-03-25T01:03:48;99364.44;;;12.33;80.96
41712;BME280;27399;51.516;13.670;2023-03-25T01:06:15;99367.22;;;12.30;81.01
41712;BME280;27399;51.516;13.670;2023-03-25T01:08:42;99360.84;;;12.34;81.25
41712;BME280;27399;51.516;13.670;2023-03-25T01:11:19;99363.72;;;12.28;81.20
41712;BME280;27399;51.516;13.670;2023-03-25T01:13:45;99369.56;;;12.40;80.73
41712;BME280;27399;51.516;13.670;2023-03-25T01:16:11;99369.78;;;12.33;80.91
41712;BME280;27399;51.516;13.670;2023-03-25T01:18:36;99363.72;;;12.28;81.12
41712;BME280;27399;51.516;13.670;2023-03-25T01:21:06;99361.88;;;12.01;81.96
41712;BME280;27399;51.516;13.670;2023-03-25T01:23:33;99351.06;;;12.06;81.81
41712;BME280;27399;51.516;13.670;2023-03-25T01:25:59;99356.19;;;12.12;81.59
41712;BME280;27399;51.516;13.670;2023-03-25T01:28:24;99361.84;;;12.03;81.80
41712;BME280;27399;51.516;13.670;2023-03-25T01:30:50;99367.81;;;12.11;81.57
41712;BME280;27399;51.516;13.670;2023-03-25T01:33:16;99360.78;;;12.08;81.58
41712;BME280;27399;51.516;13.670;2023-03-25T01:35:41;99353.63;;;11.79;82.81
41712;BME280;27399;51.516;13.670;2023-03-25T01:38:07;99352.91;;;12.04;81.75
41712;BME280;27399;51.516;13.670;2023-03-25T01:40:33;99333.94;;;11.82;82.20
41712;BME280;27399;51.516;13.670;2023-03-25T01:42:58;99343.78;;;11.81;82.56
41712;BME280;27399;51.516;13.670;2023-03-25T01:45:29;99342.66;;;11.88;82.56
41712;BME280;27399;51.516;13.670;2023-03-25T01:48:22;99338.88;;;11.96;82.65
41712;BME280;27399;51.516;13.670;2023-03-25T01:51:02;99327.31;;;11.95;81.70
41712;BME280;27399;51.516;13.670;2023-03-25T01:53:30;99320.72;;;11.78;82.29
41712;BME280;27399;51.516;13.670;2023-03-25T01:56:00;99293.56;;;11.92;81.62
41712;BME280;27399;51.516;13.670;2023-03-25T01:58:28;99312.44;;;12.16;81.27
41712;BME280;27399;51.516;13.670;2023-03-25T02:00:56;99307.25;;;12.10;81.06
41712;BME280;27399;51.516;13.670;2023-03-25T02:03:23;99300.91;;;12.14;80.64
41712;BME280;27399;51.516;13.670;2023-03-25T02:06:05;99290.41;;;12.08;80.57
41712;BME280;27399;51.516;13.670;2023-03-25T02:08:34;99295.75;;;12.08;80.64
41712;BME280;27399;51.516;13.670;2023-03-25T02:11:04;99294.00;;;12.07;80.80
41712;BME280;27399;51.516;13.670;2023-03-25T02:13:30;99284.13;;;12.09;80.70
41712;BME280;27399;51.516;13.670;2023-03-25T02:18:51;99271.59;;;12.11;80.36
41712;BME280;27399;51.516;13.670;2023-03-25T02:22:06;99274.09;;;11.89;80.87
41712;BME280;27399;51.516;13.670;2023-03-25T02:33:32;99264.03;;;11.69;81.63
41712;BME280;27399;51.516;13.670;2023-03-25T02:41:25;99258.47;;;11.75;81.57
41712;BME280;27399;51.516;13.670;2023-03-25T02:44:02;99253.56;;;11.61;82.31
41712;BME280;27399;51.516;13.670;2023-03-25T02:46:30;99253.72;;;11.56;81.78
41712;BME280;27399;51.516;13.670;2023-03-25T02:49:12;99258.97;;;11.59;82.58
41712;BME280;27399;51.516;13.670;2023-03-25T02:51:44;99250.19;;;11.56;82.47
41712;BME280;27399;51.516;13.670;2023-03-25T02:54:12;99250.59;;;11.72;81.52
41712;BME280;27399;51.516;13.670;2023-03-25T02:56:40;99246.56;;;11.85;81.31
41712;BME280;27399;51.516;13.670;2023-03-25T02:59:09;99250.13;;;11.57;82.43
41712;BME280;27399;51.516;13.670;2023-03-25T03:01:40;99259.13;;;11.55;82.01
41712;BME280;27399;51.516;13.670;2023-03-25T03:04:05;99261.97;;;11.77;82.08
41712;BME280;27399;51.516;13.670;2023-03-25T03:06:35;99262.59;;;11.85;81.56
41712;BME280;27399;51.516;13.670;2023-03-25T03:17:23;99259.31;;;11.77;81.76
41712;BME280;27399;51.516;13.670;2023-03-25T03:19:51;99253.13;;;11.75;82.29
41712;BME280;27399;51.516;13.670;2023-03-25T03:25:35;99256.84;;;11.71;82.43
41712;BME280;27399;51.516;13.670;2023-03-25T03:28:31;99250.19;;;11.84;81.95
41712;BME280;27399;51.516;13.670;2023-03-25T03:31:13;99259.44;;;11.74;82.62
41712;BME280;27399;51.516;13.670;2023-03-25T03:33:59;99261.06;;;11.78;82.19
41712;BME280;27399;51.516;13.670;2023-03-25T03:36:33;99249.88;;;11.93;81.82
41712;BME280;27399;51.516;13.670;2023-03-25T03:39:12;99260.34;;;11.73;82.36
41712;BME280;27399;51.516;13.670;2023-03-25T03:41:42;99257.47;;;11.79;82.16
41712;BME280;27399;51.516;13.670;2023-03-25T03:44:17;99257.69;;;11.73;82.30
41712;BME280;27399;51.516;13.670;2023-03-25T03:47:08;99260.97;;;12.09;81.80
41712;BME280;27399;51.516;13.670;2023-03-25T03:49:39;99258.06;;;11.89;81.70
41712;BME280;27399;51.516;13.670;2023-03-25T03:52:26;99263.69;;;12.08;81.11
41712;BME280;27399;51.516;13.670;2023-03-25T03:55:04;99264.81;;;12.01;81.35
41712;BME280;27399;51.516;13.670;2023-03-25T03:57:38;99264.75;;;12.02;81.44
41712;BME280;27399;51.516;13.670;2023-03-25T04:02:49;99259.13;;;11.83;81.74
41712;BME280;27399;51.516;13.670;2023-03-25T04:05:19;99259.44;;;11.74;81.95
41712;BME280;27399;51.516;13.670;2023-03-25T04:07:56;99266.50;;;11.75;82.50
41712;BME280;27399;51.516;13.670;2023-03-25T04:10:38;99273.72;;;11.71;82.83
41712;BME280;27399;51.516;13.670;2023-03-25T04:13:09;99273.00;;;11.66;82.53
41712;BME280;27399;51.516;13.670;2023-03-25T04:15:36;99261.66;;;11.59;82.36
41712;BME280;27399;51.516;13.670;2023-03-25T04:18:02;99271.25;;;11.65;82.88
41712;BME280;27399;51.516;13.670;2023-03-25T04:20:29;99267.94;;;11.85;82.28
41712;BME280;27399;51.516;13.670;2023-03-25T04:22:58;99269.44;;;11.67;82.61
41712;BME280;27399;51.516;13.670;2023-03-25T04:25:24;99267.84;;;11.88;81.86
41712;BME280;27399;51.516;13.670;2023-03-25T04:27:50;99268.28;;;11.74;81.69
41712;BME280;27399;51.516;13.670;2023-03-25T04:30:18;99276.91;;;11.84;81.60
41712;BME280;27399;51.516;13.670;2023-03-25T04:32:45;99278.38;;;11.65;81.77
41712;BME280;27399;51.516;13.670;2023-03-25T04:35:13;99272.94;;;11.69;81.94
41712;BME280;27399;51.516;13.670;2023-03-25T04:37:39;99284.25;;;11.76;81.65
41712;BME280;27399;51.516;13.670;2023-03-25T04:40:07;99277.16;;;11.75;82.18
41712;BME280;27399;51.516;13.670;2023-03-25T04:42:33;99285.31;;;11.72;81.66
41712;BME280;27399;51.516;13.670;2023-03-25T04:45:03;99277.56;;;11.91;81.18
41712;BME280;27399;51.516;13.670;2023-03-25T04:47:30;99277.09;;;11.78;81.15
41712;BME280;27399;51.516;13.670;2023-03-25T04:49:56;99289.19;;;11.90;80.98
41712;BME280;27399;51.516;13.670;2023-03-25T04:52:22;99284.91;;;11.84;80.99
41712;BME280;27399;51.516;13.670;2023-03-25T04:54:47;99287.13;;;12.00;80.67
41712;BME280;27399;51.516;13.670;2023-03-25T04:57:13;99290.41;;;12.08;80.28
41712;BME280;27399;51.516;13.670;2023-03-25T04:59:39;99288.13;;;11.96;80.49
41712;BME280;27399;51.516;13.670;2023-03-25T05:02:06;99287.56;;;12.14;80.19
41712;BME280;27399;51.516;13.670;2023-03-25T05:04:38;99266.66;;;11.99;80.12
41712;BME280;27399;51.516;13.670;2023-03-25T05:07:06;99275.09;;;12.13;80.09
41712;BME280;27399;51.516;13.670;2023-03-25T05:09:32;99273.50;;;11.79;80.64
41712;BME280;27399;51.516;13.670;2023-03-25T05:11:58;99267.75;;;11.91;80.47
41712;BME280;27399;51.516;13.670;2023-03-25T05:14:23;99275.47;;;11.72;80.71
41712;BME280;27399;51.516;13.670;2023-03-25T05:16:49;99268.06;;;11.82;80.90
41712;BME280;27399;51.516;13.670;2023-03-25T05:19:15;99268.59;;;11.65;80.96
41712;BME280;27399;51.516;13.670;2023-03-25T05:21:43;99274.16;;;11.57;80.85
41712;BME280;27399;51.516;13.670;2023-03-25T05:24:10;99281.31;;;11.57;81.09
41712;BME280;27399;51.516;13.670;2023-03-25T05:26:39;99281.94;;;11.65;80.40
41712;BME280;27399;51.516;13.670;2023-03-25T05:29:12;99294.41;;;11.65;80.56
41712;BME280;27399;51.516;13.670;2023-03-25T05:31:39;99285.16;;;11.76;80.36
41712;BME280;27399;51.516;13.670;2023-03-25T05:34:06;99298.03;;;11.63;80.36
41712;BME280;27399;51.516;13.670;2023-03-25T05:36:33;99290.06;;;11.90;80.43
41712;BME280;27399;51.516;13.670;2023-03-25T05:38:59;99286.22;;;11.71;80.35
41712;BME280;27399;51.516;13.670;2023-03-25T05:41:28;99298.00;;;11.92;79.99
41712;BME280;27399;51.516;13.670;2023-03-25T05:44:07;99294.66;;;11.85;79.91
41712;BME280;27399;51.516;13.670;2023-03-25T05:46:33;99295.72;;;12.09;79.29
41712;BME280;27399;51.516;13.670;2023-03-25T05:48:59;99302.97;;;12.06;79.55
41712;BME280;27399;51.516;13.670;2023-03-25T05:51:27;99304.81;;;12.04;79.82
41712;BME280;27399;51.516;13.670;2023-03-25T05:53:53;99309.09;;;12.09;79.52
41712;BME280;27399;51.516;13.670;2023-03-25T05:56:20;99316.56;;;11.98;79.74
41712;BME280;27399;51.516;13.670;2023-03-25T05:58:49;99306.44;;;12.08;79.45
41712;BME280;27399;51.516;13.670;2023-03-25T06:01:16;99312.16;;;11.96;80.01
41712;BME280;27399;51.516;13.670;2023-03-25T06:03:43;99307.69;;;12.24;79.37
41712;BME280;27399;51.516;13.670;2023-03-25T06:06:10;99312.81;;;12.31;79.24
41712;BME280;27399;51.516;13.670;2023-03-25T06:08:42;99319.94;;;12.32;79.01
41712;BME280;27399;51.516;13.670;2023-03-25T06:11:10;99323.72;;;12.24;79.07
41712;BME280;27399;51.516;13.670;2023-03-25T06:13:38;99322.16;;;12.17;79.23
41712;BME280;27399;51.516;13.670;2023-03-25T06:16:05;99318.16;;;12.04;79.40
41712;BME280;27399;51.516;13.670;2023-03-25T06:18:31;99327.31;;;11.95;79.25
41712;BME280;27399;51.516;13.670;2023-03-25T06:20:57;99327.00;;;12.06;79.30
41712;BME280;27399;51.516;13.670;2023-03-25T06:23:25;99323.50;;;12.04;79.36
41712;BME280;27399;51.516;13.670;2023-03-25T06:25:52;99329.13;;;11.94;79.38
41712;BME280;27399;51.516;13.670;2023-03-25T06:28:18;99325.56;;;11.94;79.32
41712;BME280;27399;51.516;13.670;2023-03-25T06:30:45;99330.13;;;11.90;79.96
41712;BME280;27399;51.516;13.670;2023-03-25T06:33:12;99338.06;;;11.93;79.83
41712;BME280;27399;51.516;13.670;2023-03-25T06:35:41;99344.31;;;11.92;79.60
41712;BME280;27399;51.516;13.670;2023-03-25T06:38:09;99347.72;;;11.68;79.49
41712;BME280;27399;51.516;13.670;2023-03-25T06:40:38;99342.66;;;11.88;78.94
41712;BME280;27399;51.516;13.670;2023-03-25T06:43:06;99352.72;;;11.80;78.65
41712;BME280;27399;51.516;13.670;2023-03-25T06:45:32;99353.34;;;11.88;78.56
41712;BME280;27399;51.516;13.670;2023-03-25T06:47:59;99320.03;;;11.72;78.39
41712;BME280;27399;51.516;13.670;2023-03-25T06:50:25;99351.25;;;12.00;78.46
41712;BME280;27399;51.516;13.670;2023-03-25T06:52:51;99353.47;;;11.84;77.77
41712;BME280;27399;51.516;13.670;2023-03-25T06:55:17;99351.78;;;11.81;78.53
41712;BME280;27399;51.516;13.670;2023-03-25T06:57:42;99356.66;;;11.67;78.90
41712;BME280;27399;51.516;13.670;2023-03-25T07:00:09;99360.72;;;11.80;79.11
41712;BME280;27399;51.516;13.670;2023-03-25T07:02:37;99358.69;;;11.58;79.83
41712;BME280;27399;51.516;13.670;2023-03-25T07:05:03;99357.22;;;11.78;79.36
41712;BME280;27399;51.516;13.670;2023-03-25T07:07:29;99362.38;;;11.84;79.41
41712;BME280;27399;51.516;13.670;2023-03-25T07:09:55;99367.69;;;11.86;79.55
41712;BME280;27399;51.516;13.670;2023-03-25T07:12:21;99374.22;;;11.44;79.89
41712;BME280;27399;51.516;13.670;2023-03-25T07:14:54;99361.72;;;11.46;79.13
41712;BME280;27399;51.516;13.670;2023-03-25T07:17:20;99370.78;;;11.40;79.38
41712;BME280;27399;51.516;13.670;2023-03-25T07:19:47;99353.06;;;11.68;78.68
41712;BME280;27399;51.516;13.670;2023-03-25T07:22:13;99361.31;;;11.60;79.29
41712;BME280;27399;51.516;13.670;2023-03-25T07:24:38;99354.00;;;11.67;78.55
41712;BME280;27399;51.516;13.670;2023-03-25T07:27:04;99362.63;;;11.76;78.96
41712;BME280;27399;51.516;13.670;2023-03-25T07:29:30;99370.41;;;11.84;77.71
41712;BME280;27399;51.516;13.670;2023-03-25T07:31:55;99369.56;;;11.82;77.33
41712;BME280;27399;51.516;13.670;2023-03-25T07:34:21;99366.91;;;11.82;78.12
41712;BME280;27399;51.516;13.670;2023-03-25T07:36:47;99371.88;;;11.94;77.65
41712;BME280;27399;51.516;13.670;2023-03-25T07:39:13;99362.56;;;12.08;77.23
41712;BME280;27399;51.516;13.670;2023-03-25T07:41:38;99377.88;;;12.03;77.22
41712;BME280;27399;51.516;13.670;2023-03-25T07:44:04;99380.50;;;12.04;75.78
41712;BME280;27399;51.516;13.670;2023-03-25T07:46:30;99382.16;;;11.78;75.33
41712;BME280;27399;51.516;13.670;2023-03-25T07:48:56;99382.31;;;12.02;74.46
41712;BME280;27399;51.516;13.670;2023-03-25T07:51:21;99379.41;;;12.10;74.23
41712;BME280;27399;51.516;13.670;2023-03-25T07:53:47;99385.31;;;12.21;74.21
41712;BME280;27399;51.516;13.670;2023-03-25T07:56:13;99391.16;;;12.06;73.90
41712;BME280;27399;51.516;13.670;2023-03-25T07:58:40;99384.97;;;12.04;73.72
41712;BME280;27399;51.516;13.670;2023-03-25T08:01:07;99388.19;;;12.15;73.85
41712;BME280;27399;51.516;13.670;2023-03-25T08:03:33;99390.94;;;12.12;73.60
41712;BME280;27399;51.516;13.670;2023-03-25T08:06:01;99388.28;;;12.12;73.25
41712;BME280;27399;51.516;13.670;2023-03-25T08:08:27;99373.53;;;11.69;72.91
41712;BME280;27399;51.516;13.670;2023-03-25T08:10:56;99397.84;;;12.19;73.65
41712;BME280;27399;51.516;13.670;2023-03-25T08:13:22;99409.31;;;11.93;73.07
41712;BME280;27399;51.516;13.670;2023-03-25T08:15:48;99401.19;;;11.96;73.39
41712;BME280;27399;51.516;13.670;2023-03-25T08:18:13;99409.03;;;12.04;72.72
41712;BME280;27399;51.516;13.670;2023-03-25T08:20:40;99380.34;;;11.79;72.89
41712;BME280;27399;51.516;13.670;2023-03-25T08:23:05;99420.88;;;11.93;73.57
41712;BME280;27399;51.516;13.670;2023-03-25T08:25:38;99415.56;;;11.92;73.18
41712;BME280;27399;51.516;13.670;2023-03-25T08:28:05;99413.25;;;12.11;72.82
41712;BME280;27399;51.516;13.670;2023-03-25T08:30:35;99414.88;;;12.44;73.88
41712;BME280;27399;51.516;13.670;2023-03-25T08:33:07;99408.50;;;12.21;72.91
41712;BME280;27399;51.516;13.670;2023-03-25T08:35:34;99414.91;;;12.15;72.39
41712;BME280;27399;51.516;13.670;2023-03-25T08:38:00;99411.69;;;12.04;71.88
41712;BME280;27399;51.516;13.670;2023-03-25T08:40:30;99414.78;;;11.88;72.73
41712;BME280;27399;51.516;13.670;2023-03-25T08:42:55;99414.94;;;12.14;72.61
41712;BME280;27399;51.516;13.670;2023-03-25T08:45:21;99405.09;;;12.16;72.61
41712;BME280;27399;51.516;13.670;2023-03-25T08:47:47;99421.59;;;12.29;72.50
41712;BME280;27399;51.516;13.670;2023-03-25T08:50:13;99410.28;;;12.20;72.72
41712;BME280;27399;51.516;13.670;2023-03-25T08:52:38;99404.63;;;12.30;71.83
41712;BME280;27399;51.516;13.670;2023-03-25T08:55:05;99406.31;;;12.61;72.09
41712;BME280;27399;51.516;13.670;2023-03-25T08:57:34;99397.16;;;12.41;72.35
41712;BME280;27399;51.516;13.670;2023-03-25T09:00:04;99400.22;;;12.29;73.17
41712;BME280;27399;51.516;13.670;2023-03-25T09:02:40;99415.16;;;12.36;72.69
41712;BME280;27399;51.516;13.670;2023-03-25T09:05:10;99430.03;;;12.16;73.79
41712;BME280;27399;51.516;13.670;2023-03-25T09:07:37;99428.84;;;11.95;73.44
41712;BME280;27399;51.516;13.670;2023-03-25T09:10:05;99428.00;;;12.23;73.15
41712;BME280;27399;51.516;13.670;2023-03-25T09:12:31;99434.03;;;12.31;73.92
41712;BME280;27399;51.516;13.670;2023-03-25T09:14:57;99436.41;;;12.40;75.18
41712;BME280;27399;51.516;13.670;2023-03-25T09:17:23;99432.19;;;12.03;74.18
41712;BME280;27399;51.516;13.670;2023-03-25T09:19:49;99432.88;;;12.10;74.32
41712;BME280;27399;51.516;13.670;2023-03-25T09:22:15;99437.28;;;12.11;75.36
41712;BME280;27399;51.516;13.670;2023-03-25T09:24:41;99422.38;;;12.04;74.79
41712;BME280;27399;51.516;13.670;2023-03-25T09:27:07;99428.22;;;12.17;75.05
41712;BME280;27399;51.516;13.670;2023-03-25T09:29:33;99435.16;;;12.22;75.17
41712;BME280;27399;51.516;13.670;2023-03-25T09:31:59;99449.66;;;12.15;74.89
41712;BME280;27399;51.516;13.670;2023-03-25T09:34:25;99453.69;;;11.99;74.56
41712;BME280;27399;51.516;13.670;2023-03-25T09:36:53;99429.56;;;12.02;75.05
41712;BME280;27399;51.516;13.670;2023-03-25T09:39:18;99445.69;;;11.99;75.38
41712;BME280;27399;51.516;13.670;2023-03-25T09:44:59;99441.78;;;12.11;76.08
41712;BME280;27399;51.516;13.670;2023-03-25T09:47:30;99443.75;;;12.04;76.39
41712;BME280;27399;51.516;13.670;2023-03-25T09:50:02;99443.78;;;12.02;77.35
41712;BME280;27399;51.516;13.670;2023-03-25T09:52:37;99444.47;;;12.09;77.04
41712;BME280;27399;51.516;13.670;2023-03-25T09:55:08;99446.38;;;12.05;77.89
41712;BME280;27399;51.516;13.670;2023-03-25T09:57:46;99440.06;;;12.08;77.26
41712;BME280;27399;51.516;13.670;2023-03-25T10:00:21;99440.06;;;12.08;77.14
41712;BME280;27399;51.516;13.670;2023-03-25T10:03:06;99451.06;;;11.97;76.03
41712;BME280;27399;51.516;13.670;2023-03-25T10:08:59;99447.69;;;11.90;76.19
41712;BME280;27399;51.516;13.670;2023-03-25T10:14:26;99436.28;;;11.84;75.36
41712;BME280;27399;51.516;13.670;2023-03-25T10:17:04;99428.41;;;12.11;75.48
41712;BME280;27399;51.516;13.670;2023-03-25T10:22:38;99415.00;;;12.12;75.17
41712;BME280;27399;51.516;13.670;2023-03-25T10:25:21;99421.81;;;12.22;75.26
41712;BME280;27399;51.516;13.670;2023-03-25T10:27:50;99410.72;;;12.35;76.38
41712;BME280;27399;51.516;13.670;2023-03-25T10:30:38;99409.97;;;12.30;74.62
41712;BME280;27399;51.516;13.670;2023-03-25T10:33:35;99407.44;;;12.27;74.26
41712;BME280;27399;51.516;13.670;2023-03-25T10:36:04;99408.28;;;12.27;73.00
41712;BME280;27399;51.516;13.670;2023-03-25T10:38:33;99396.66;;;12.57;72.77
41712;BME280;27399;51.516;13.670;2023-03-25T10:41:13;99407.13;;;12.64;72.83
41712;BME280;27399;51.516;13.670;2023-03-25T10:43:41;99408.66;;;12.71;72.38
41712;BME280;27399;51.516;13.670;2023-03-25T10:48:58;99397.06;;;12.71;70.53
41712;BME280;27399;51.516;13.670;2023-03-25T10:51:31;99395.63;;;12.88;71.07
41712;BME280;27399;51.516;13.670;2023-03-25T10:53:59;99395.91;;;13.05;69.68
41712;BME280;27399;51.516;13.670;2023-03-25T10:56:28;99373.88;;;13.22;69.77
41712;BME280;27399;51.516;13.670;2023-03-25T10:58:56;99382.16;;;13.41;70.86
41712;BME280;27399;51.516;13.670;2023-03-25T11:01:39;99375.09;;;13.64;70.96
41712;BME280;27399;51.516;13.670;2023-03-25T11:04:07;99375.47;;;13.53;68.92
41712;BME280;27399;51.516;13.670;2023-03-25T11:06:37;99371.78;;;13.56;69.46
41712;BME280;27399;51.516;13.670;2023-03-25T11:09:14;99371.78;;;13.56;69.45
41712;BME280;27399;51.516;13.670;2023-03-25T11:11:42;99367.38;;;13.78;70.53
41712;BME280;27399;51.516;13.670;2023-03-25T11:14:12;99362.81;;;13.81;69.84
41712;BME280;27399;51.516;13.670;2023-03-25T11:16:51;99368.25;;;13.55;68.39
41712;BME280;27399;51.516;13.670;2023-03-25T11:19:35;99354.03;;;13.77;67.36
41712;BME280;27399;51.516;13.670;2023-03-25T11:22:17;99354.16;;;13.74;64.82
41712;BME280;27399;51.516;13.670;2023-03-25T11:24:47;99357.88;;;14.16;65.42
41712;BME280;27399;51.516;13.670;2023-03-25T11:27:25;99348.84;;;14.18;65.33
41712;BME280;27399;51.516;13.670;2023-03-25T11:29:55;99365.84;;;14.39;64.12
41712;BME280;27399;51.516;13.670;2023-03-25T11:32:23;99350.28;;;14.27;63.38
41712;BME280;27399;51.516;13.670;2023-03-25T11:34:56;99346.13;;;14.40;64.06
41712;BME280;27399;51.516;13.670;2023-03-25T11:37:22;99346.34;;;14.36;63.83
41712;BME280;27399;51.516;13.670;2023-03-25T11:39:53;99348.09;;;14.37;63.23
41712;BME280;27399;51.516;13.670;2023-03-25T11:42:30;99343.84;;;14.53;64.38
41712;BME280;27399;51.516;13.670;2023-03-25T11:44:58;99336.56;;;14.13;63.74
41712;BME280;27399;51.516;13.670;2023-03-25T11:47:28;99333.81;;;14.36;64.03
41712;BME280;27399;51.516;13.670;2023-03-25T11:49:55;99336.81;;;14.29;64.09
41712;BME280;27399;51.516;13.670;2023-03-25T11:52:24;99325.91;;;14.11;64.13
41712;BME280;27399;51.516;13.670;2023-03-25T11:54:55;99336.19;;;14.22;64.08
41712;BME280;27399;51.516;13.670;2023-03-25T11:57:31;99332.25;;;14.08;63.97
41712;BME280;27399;51.516;13.670;2023-03-25T12:00:08;99338.31;;;14.14;64.29
41712;BME280;27399;51.516;13.670;2023-03-25T12:02:42;99330.94;;;14.19;63.33
41712;BME280;27399;51.516;13.670;2023-03-25T12:07:48;99371.50;;;13.40;68.30
41712;BME280;27399;51.516;13.670;2023-03-25T12:16:59;99344.19;;;13.77;73.98
41712;BME280;27399;51.516;13.670;2023-03-25T12:19:41;99330.94;;;13.51;73.28
41712;BME280;27399;51.516;13.670;2023-03-25T12:30:52;99304.13;;;14.19;68.53
41712;BME280;27399;51.516;13.670;2023-03-25T12:33:43;99291.03;;;14.33;66.37
41712;BME280;27399;51.516;13.670;2023-03-25T12:41:41;99277.38;;;14.60;61.90
41712;BME280;27399;51.516;13.670;2023-03-25T12:47:22;99280.34;;;14.95;60.89
41712;BME280;27399;51.516;13.670;2023-03-25T12:50:28;99270.59;;;15.52;62.69
41712;BME280;27399;51.516;13.670;2023-03-25T13:07:07;99258.91;;;15.72;59.54
41712;BME280;27399;51.516;13.670;2023-03-25T13:09:56;99257.81;;;15.38;58.75
41712;BME280;27399;51.516;13.670;2023-03-25T13:12:40;99256.94;;;15.56;59.61
41712;BME280;27399;51.516;13.670;2023-03-25T13:15:23;99261.91;;;15.46;59.86
41712;BME280;27399;51.516;13.670;2023-03-25T13:20:17;99258.22;;;15.09;58.70
41712;BME280;27399;51.516;13.670;2023-03-25T13:22:48;99233.28;;;15.07;58.53
41712;BME280;27399;51.516;13.670;2023-03-25T13:25:37;99234.75;;;15.33;59.73
41712;BME280;27399;51.516;13.670;2023-03-25T13:28:12;99233.94;;;15.12;58.34
41712;BME280;27399;51.516;13.670;2023-03-25T13:30:42;99236.56;;;15.52;59.66
41712;BME280;27399;51.516;13.670;2023-03-25T13:33:16;99229.34;;;15.72;59.86
41712;BME280;27399;51.516;13.670;2023-03-25T13:35:58;99220.94;;;15.60;59.67
41712;BME280;27399;51.516;13.670;2023-03-25T13:38:30;99228.47;;;15.14;58.62
41712;BME280;27399;51.516;13.670;2023-03-25T13:41:07;99227.19;;;15.42;60.08
41712;BME280;27399;51.516;13.670;2023-03-25T13:46:35;99230.50;;;15.09;58.35
41712;BME280;27399;51.516;13.670;2023-03-25T13:49:14;99226.22;;;14.85;59.38
41712;BME280;27399;51.516;13.670;2023-03-25T13:51:41;99227.16;;;15.03;59.91
41712;BME280;27399;51.516;13.670;2023-03-25T13:54:34;99251.75;;;14.74;61.05
41712;BME280;27399;51.516;13.670;2023-03-25T14:02:50;99252.16;;;14.64;66.68
41712;BME280;27399;51.516;13.670;2023-03-25T14:11:26;99234.56;;;14.98;64.88
41712;BME280;27399;51.516;13.670;2023-03-25T14:13:59;99227.84;;;15.09;63.85
41712;BME280;27399;51.516;13.670;2023-03-25T14:16:36;99229.66;;;15.27;65.45
41712;BME280;27399;51.516;13.670;2023-03-25T14:19:10;99231.25;;;15.12;63.03
41712;BME280;27399;51.516;13.670;2023-03-25T14:24:26;99237.72;;;14.87;61.82
41712;BME280;27399;51.516;13.670;2023-03-25T14:27:05;99234.59;;;14.78;61.09
41712;BME280;27399;51.516;13.670;2023-03-25T14:32:38;99287.31;;;13.93;63.29
41712;BME280;27399;51.516;13.670;2023-03-25T14:43:38;99324.56;;;13.04;74.88
41712;BME280;27399;51.516;13.670;2023-03-25T14:54:33;99307.75;;;11.94;78.12
41712;BME280;27399;51.516;13.670;2023-03-25T14:57:19;99311.78;;;12.08;78.73
41712;BME280;27399;51.516;13.670;2023-03-25T14:59:54;99317.19;;;12.06;78.99
41712;BME280;27399;51.516;13.670;2023-03-25T15:02:28;99322.34;;;11.83;79.10
41712;BME280;27399;51.516;13.670;2023-03-25T15:05:10;99310.34;;;11.98;78.33
41712;BME280;27399;51.516;13.670;2023-03-25T15:07:41;99299.63;;;11.69;78.94
41712;BME280;27399;51.516;13.670;2023-03-25T15:10:17;99309.38;;;12.00;80.42
41712;BME280;27399;51.516;13.670;2023-03-25T15:12:52;99315.09;;;11.86;80.28
41712;BME280;27399;51.516;13.670;2023-03-25T15:17:53;99311.06;;;12.03;78.36
41712;BME280;27399;51.516;13.670;2023-03-25T15:25:49;99323.13;;;11.86;78.23